createdAt,value
2023-03-07T00:01:30.184Z,50.75
2023-03-07T00:03:59.309Z,52.45
2023-03-07T00:06:27.361Z,49.85
2023-03-07T00:08:59.924Z,47.90
2023-03-07T00:11:28.914Z,57.13
2023-03-07T00:13:57.318Z,55.10
2023-03-07T00:16:25.977Z,51.83
2023-03-07T00:18:54.793Z,58.08
2023-03-07T00:21:22.992Z,58.20
2023-03-07T00:23:54.238Z,62.97
2023-03-07T00:26:24.444Z,64.93
2023-03-07T00:28:55.046Z,59.03
2023-03-07T00:31:24.378Z,58.30
2023-03-07T00:33:52.071Z,58.97
2023-03-07T00:36:23.144Z,53.78
2023-03-07T00:38:52.025Z,53.30
2023-03-07T00:41:25.411Z,51.40
2023-03-07T00:43:55.127Z,49.30
2023-03-07T00:46:25.236Z,48.55
2023-03-07T00:48:53.353Z,46.87
2023-03-07T00:51:22.368Z,48.97
2023-03-07T00:53:51.092Z,49.03
2023-03-07T00:56:25.254Z,47.58
2023-03-07T00:58:53.250Z,46.47
2023-03-07T01:01:25.696Z,47.30
2023-03-07T01:03:54.236Z,44.97
2023-03-07T01:06:27.131Z,49.30
2023-03-07T01:08:58.063Z,42.83
2023-03-07T01:11:26.571Z,47.72
2023-03-07T01:13:59.433Z,42.47
2023-03-07T01:16:34.121Z,40.20
2023-03-07T01:19:06.724Z,39.40
2023-03-07T01:21:40.491Z,45.40
2023-03-07T01:24:13.762Z,39.73
2023-03-07T01:26:41.183Z,40.95
2023-03-07T01:29:11.861Z,44.30
2023-03-07T01:31:39.586Z,40.60
2023-03-07T01:34:07.952Z,44.88
2023-03-07T01:36:37.055Z,43.20
2023-03-07T01:39:15.917Z,44.35
2023-03-07T01:41:45.229Z,40.85
2023-03-07T01:44:26.013Z,45.65
2023-03-07T01:47:00.801Z,44.50
2023-03-07T01:49:41.040Z,46.33
2023-03-07T01:52:43.116Z,41.67
2023-03-07T01:55:22.680Z,43.95
2023-03-07T01:57:52.489Z,39.28
2023-03-07T02:00:29.871Z,48.78
2023-03-07T02:03:17.536Z,39.15
2023-03-07T02:06:10.672Z,42.88
2023-03-07T02:08:40.299Z,37.90
2023-03-07T02:11:08.553Z,41.80
2023-03-07T02:13:35.969Z,39.50
2023-03-07T02:16:05.908Z,41.58
2023-03-07T02:18:42.043Z,42.90
2023-03-07T02:21:32.922Z,42.13
2023-03-07T02:24:32.458Z,39.42
2023-03-07T02:26:59.982Z,40.50
2023-03-07T02:29:27.250Z,39.25
2023-03-07T02:31:54.752Z,41.88
2023-03-07T02:34:27.276Z,36.80
2023-03-07T02:37:05.014Z,37.60
2023-03-07T02:39:33.260Z,37.35
2023-03-07T02:42:08.272Z,37.25
2023-03-07T02:44:35.554Z,37.88
2023-03-07T02:47:03.285Z,31.92
2023-03-07T02:49:30.563Z,31.95
2023-03-07T02:52:00.745Z,33.03
2023-03-07T02:54:28.090Z,31.90
2023-03-07T02:56:55.648Z,33.33
2023-03-07T02:59:22.957Z,33.92
2023-03-07T03:01:50.658Z,33.55
2023-03-07T03:04:18.125Z,30.83
2023-03-07T03:06:45.691Z,33.08
2023-03-07T03:09:13.020Z,32.50
2023-03-07T03:11:40.550Z,33.00
2023-03-07T03:14:07.999Z,34.13
2023-03-07T03:16:35.542Z,31.67
2023-03-07T03:19:03.520Z,36.10
2023-03-07T03:21:31.635Z,34.10
2023-03-07T03:23:58.925Z,38.22
2023-03-07T03:26:26.499Z,37.13
2023-03-07T03:28:55.078Z,38.33
2023-03-07T03:31:22.685Z,36.63
2023-03-07T03:33:52.328Z,35.00
2023-03-07T03:36:20.433Z,31.10
2023-03-07T03:38:47.668Z,30.15
2023-03-07T03:41:16.155Z,31.13
2023-03-07T03:43:43.613Z,30.67
2023-03-07T03:46:11.444Z,31.43
2023-03-07T03:48:38.859Z,32.38
2023-03-07T03:51:12.370Z,32.03
2023-03-07T03:53:40.243Z,32.88
2023-03-07T03:56:15.939Z,35.07
2023-03-07T03:58:44.305Z,34.53
2023-03-07T04:01:13.018Z,32.30
2023-03-07T04:03:44.280Z,36.20
2023-03-07T04:06:15.592Z,30.77
2023-03-07T04:08:42.981Z,33.40
2023-03-07T04:11:10.753Z,39.28
2023-03-07T04:13:38.059Z,34.50
2023-03-07T04:16:06.404Z,37.88
2023-03-07T04:18:35.545Z,37.30
2023-03-07T04:21:06.102Z,33.58
2023-03-07T04:23:34.134Z,31.25
2023-03-07T04:26:05.215Z,32.50
2023-03-07T04:28:45.402Z,36.58
2023-03-07T04:31:22.710Z,35.60
2023-03-07T04:33:51.229Z,36.00
2023-03-07T04:36:19.057Z,37.75
2023-03-07T04:38:48.668Z,32.90
2023-03-07T04:41:23.144Z,37.17
2023-03-07T04:43:50.510Z,33.90
2023-03-07T04:46:19.637Z,33.30
2023-03-07T04:48:47.841Z,35.47
2023-03-07T04:51:15.927Z,34.73
2023-03-07T04:53:44.334Z,35.43
2023-03-07T04:56:15.313Z,33.13
2023-03-07T04:58:44.155Z,36.13
2023-03-07T05:01:11.814Z,34.10
2023-03-07T05:03:39.139Z,35.50
2023-03-07T05:06:11.174Z,38.60
2023-03-07T05:08:38.425Z,36.73
2023-03-07T05:11:06.329Z,35.30
2023-03-07T05:13:33.833Z,36.90
2023-03-07T05:16:01.728Z,34.97
2023-03-07T05:18:29.656Z,32.83
2023-03-07T05:20:57.321Z,34.23
2023-03-07T05:23:24.855Z,33.20
2023-03-07T05:25:52.382Z,28.20
2023-03-07T05:28:19.740Z,32.27
2023-03-07T05:30:48.139Z,31.17
2023-03-07T05:33:15.806Z,32.30
2023-03-07T05:35:43.509Z,28.63
2023-03-07T05:38:11.489Z,31.67
2023-03-07T05:40:39.426Z,33.83
2023-03-07T05:43:06.776Z,33.08
2023-03-07T05:45:34.339Z,38.77
2023-03-07T05:48:02.091Z,35.15
2023-03-07T05:50:30.719Z,37.73
2023-03-07T05:52:57.999Z,31.83
2023-03-07T05:55:25.802Z,36.70
2023-03-07T05:57:53.163Z,34.10
2023-03-07T06:00:21.658Z,34.93
2023-03-07T06:02:48.928Z,39.45
2023-03-07T06:05:17.078Z,39.38
2023-03-07T06:07:44.690Z,32.07
2023-03-07T06:10:13.371Z,37.63
2023-03-07T06:12:40.707Z,41.03
2023-03-07T06:15:09.066Z,40.43
2023-03-07T06:17:37.177Z,35.13
2023-03-07T06:20:06.168Z,40.13
2023-03-07T06:22:34.731Z,34.60
2023-03-07T06:25:02.335Z,35.75
2023-03-07T06:27:37.128Z,36.60
2023-03-07T06:30:07.640Z,37.17
2023-03-07T06:32:35.014Z,40.00
2023-03-07T06:35:02.614Z,38.37
2023-03-07T06:37:29.844Z,38.28
2023-03-07T06:39:57.604Z,33.78
2023-03-07T06:42:24.913Z,40.70
2023-03-07T06:44:52.642Z,36.97
2023-03-07T06:47:19.969Z,35.15
2023-03-07T06:49:47.457Z,38.08
2023-03-07T06:52:14.713Z,41.00
2023-03-07T06:54:42.226Z,37.70
2023-03-07T06:57:09.527Z,33.67
2023-03-07T06:59:37.032Z,35.85
2023-03-07T07:02:05.590Z,34.72
2023-03-07T07:04:33.835Z,35.38
2023-03-07T07:07:01.125Z,35.47
2023-03-07T07:09:29.220Z,34.28
2023-03-07T07:11:56.461Z,33.88
2023-03-07T07:14:24.227Z,32.80
2023-03-07T07:16:51.564Z,30.60
2023-03-07T07:19:19.144Z,33.72
2023-03-07T07:21:46.453Z,35.28
2023-03-07T07:24:14.106Z,31.20
2023-03-07T07:26:41.383Z,34.03
2023-03-07T07:29:09.006Z,29.55
2023-03-07T07:31:36.402Z,36.17
2023-03-07T07:34:04.527Z,31.88
2023-03-07T07:36:32.710Z,29.42
2023-03-07T07:39:05.460Z,30.65
2023-03-07T07:41:34.643Z,30.50
2023-03-07T07:44:02.420Z,28.30
2023-03-07T07:46:29.953Z,28.52
2023-03-07T07:48:57.542Z,31.48
2023-03-07T07:51:24.849Z,32.60
2023-03-07T07:53:52.560Z,26.40
2023-03-07T07:56:19.843Z,27.15
2023-03-07T07:58:48.116Z,26.83
2023-03-07T08:01:22.023Z,28.85
2023-03-07T08:03:49.852Z,27.58
2023-03-07T08:06:27.380Z,25.15
2023-03-07T08:08:56.017Z,25.17
2023-03-07T08:11:24.266Z,27.80
2023-03-07T08:13:52.041Z,23.65
2023-03-07T08:16:22.763Z,25.15
2023-03-07T08:18:54.419Z,26.20
2023-03-07T08:21:22.567Z,28.15
2023-03-07T08:23:50.383Z,23.30
2023-03-07T08:26:18.053Z,24.70
2023-03-07T08:28:46.206Z,25.50
2023-03-07T08:31:21.120Z,24.45
2023-03-07T08:33:49.754Z,22.17
2023-03-07T08:36:17.108Z,25.58
2023-03-07T08:38:50.917Z,25.20
2023-03-07T08:41:20.735Z,23.65
2023-03-07T08:43:48.575Z,23.45
2023-03-07T08:46:16.594Z,22.75
2023-03-07T08:48:44.277Z,23.02
2023-03-07T08:51:16.581Z,22.70
2023-03-07T08:53:46.307Z,22.17
2023-03-07T08:56:18.026Z,22.83
2023-03-07T08:58:46.602Z,24.08
2023-03-07T09:01:14.243Z,25.20
2023-03-07T09:03:43.636Z,23.65
2023-03-07T09:06:20.639Z,22.10
2023-03-07T09:08:49.620Z,22.08
2023-03-07T09:11:19.318Z,24.30
2023-03-07T09:13:52.358Z,25.35
2023-03-07T09:16:21.950Z,25.38
2023-03-07T09:18:50.594Z,23.75
2023-03-07T09:21:18.157Z,27.23
2023-03-07T09:23:45.789Z,22.33
2023-03-07T09:26:13.316Z,25.67
2023-03-07T09:28:41.480Z,23.70
2023-03-07T09:31:11.915Z,23.25
2023-03-07T09:33:40.142Z,21.73
2023-03-07T09:36:11.404Z,21.17
2023-03-07T09:38:39.896Z,20.90
2023-03-07T09:41:41.076Z,21.20
2023-03-07T09:44:44.883Z,19.15
2023-03-07T09:47:39.226Z,18.83
2023-03-07T09:50:29.596Z,19.05
2023-03-07T09:53:04.019Z,19.83
2023-03-07T09:55:32.667Z,16.85
2023-03-07T09:58:16.122Z,17.90
2023-03-07T10:00:45.791Z,17.48
2023-03-07T10:03:46.250Z,18.75
2023-03-07T10:06:30.676Z,14.68
2023-03-07T10:09:01.395Z,16.85
2023-03-07T10:12:40.023Z,14.18
2023-03-07T10:15:45.830Z,13.00
2023-03-07T10:18:46.578Z,14.30
2023-03-07T10:21:38.332Z,15.38
2023-03-07T10:24:38.842Z,14.75
2023-03-07T10:27:10.780Z,14.18
2023-03-07T10:29:52.016Z,13.85
2023-03-07T10:32:35.037Z,13.52
2023-03-07T10:35:21.592Z,13.45
2023-03-07T10:37:57.151Z,15.68
2023-03-07T10:40:48.925Z,13.57
2023-03-07T10:43:36.794Z,13.15
2023-03-07T10:46:25.098Z,13.23
2023-03-07T10:49:16.952Z,12.20
2023-03-07T10:51:57.599Z,13.23
2023-03-07T10:54:32.351Z,12.45
2023-03-07T10:57:10.284Z,13.13
2023-03-07T10:59:43.696Z,13.80
2023-03-07T11:02:44.858Z,12.45
2023-03-07T11:05:36.678Z,13.27
2023-03-07T11:08:34.103Z,16.73
2023-03-07T11:11:04.843Z,14.75
2023-03-07T11:13:32.626Z,21.48
2023-03-07T11:16:20.328Z,21.30
2023-03-07T11:18:48.146Z,17.70
2023-03-07T11:21:36.165Z,20.77
2023-03-07T11:24:20.377Z,16.50
2023-03-07T11:26:54.329Z,18.80
2023-03-07T11:29:22.255Z,16.25
2023-03-07T11:32:12.332Z,16.25
2023-03-07T11:35:08.150Z,18.02
2023-03-07T11:37:49.275Z,19.27
2023-03-07T11:40:26.796Z,13.75
2023-03-07T11:43:13.479Z,17.27
2023-03-07T11:46:17.814Z,15.50
2023-03-07T11:49:27.208Z,17.38
2023-03-07T11:52:17.731Z,16.88
2023-03-07T11:54:57.300Z,18.92
2023-03-07T11:57:36.912Z,17.90
2023-03-07T12:00:47.770Z,16.77
2023-03-07T12:03:20.906Z,16.83
2023-03-07T12:06:29.332Z,16.30
2023-03-07T12:09:22.158Z,14.65
2023-03-07T12:11:55.229Z,14.18
2023-03-07T12:14:56.221Z,16.55
2023-03-07T12:17:48.601Z,16.63
2023-03-07T12:20:31.071Z,16.48
2023-03-07T12:23:16.516Z,19.13
2023-03-07T12:25:58.514Z,17.92
2023-03-07T12:28:44.397Z,17.42
2023-03-07T12:31:32.438Z,17.38
2023-03-07T12:34:33.910Z,17.25
2023-03-07T12:37:16.651Z,17.73
2023-03-07T12:40:02.277Z,20.40
2023-03-07T12:42:56.090Z,20.65
2023-03-07T12:45:50.619Z,19.48
2023-03-07T12:48:52.099Z,18.58
2023-03-07T12:51:43.158Z,16.98
2023-03-07T12:54:34.147Z,19.42
2023-03-07T12:57:19.968Z,16.63
2023-03-07T12:59:50.847Z,18.60
2023-03-07T13:02:29.284Z,19.30
2023-03-07T13:04:59.016Z,20.13
2023-03-07T13:07:33.567Z,17.67
2023-03-07T13:10:07.160Z,17.10
2023-03-07T13:12:38.850Z,17.95
2023-03-07T13:15:38.621Z,17.17
2023-03-07T13:18:30.327Z,17.02
2023-03-07T13:21:14.183Z,18.52
2023-03-07T13:23:41.746Z,17.70
2023-03-07T13:26:22.531Z,17.15
2023-03-07T13:28:51.501Z,17.67
2023-03-07T13:31:18.981Z,17.58
2023-03-07T13:33:48.029Z,17.20
2023-03-07T13:36:38.768Z,18.95
2023-03-07T13:39:38.419Z,17.88
2023-03-07T13:42:46.439Z,17.73
2023-03-07T13:45:42.973Z,18.20
2023-03-07T13:48:30.866Z,17.95
2023-03-07T13:51:01.248Z,20.92
2023-03-07T13:53:31.392Z,17.50
2023-03-07T13:56:17.282Z,20.23
2023-03-07T13:59:18.360Z,17.95
2023-03-07T14:02:12.714Z,22.35
2023-03-07T14:04:56.000Z,22.05
2023-03-07T14:07:28.362Z,17.27
2023-03-07T14:10:23.782Z,20.10
2023-03-07T14:13:13.116Z,21.27
2023-03-07T14:16:09.970Z,20.88
2023-03-07T14:19:07.493Z,17.35
2023-03-07T14:21:57.126Z,23.58
2023-03-07T14:24:41.477Z,25.85
2023-03-07T14:27:16.500Z,19.85
2023-03-07T14:29:57.221Z,21.90
2023-03-07T14:32:30.914Z,19.00
2023-03-07T14:34:59.349Z,19.88
2023-03-07T14:37:32.787Z,18.52
2023-03-07T14:40:00.146Z,21.30
2023-03-07T14:43:22.829Z,21.23
2023-03-07T14:46:14.532Z,20.48
2023-03-07T14:49:23.998Z,19.35
2023-03-07T14:51:51.496Z,17.88
2023-03-07T14:54:29.778Z,21.65
2023-03-07T14:57:00.020Z,17.98
2023-03-07T14:59:29.379Z,19.75
2023-03-07T15:01:57.983Z,19.08
2023-03-07T15:04:28.820Z,18.10
2023-03-07T15:07:01.350Z,22.48
2023-03-07T15:09:30.654Z,23.75
2023-03-07T15:12:20.209Z,23.00
2023-03-07T15:15:03.291Z,19.65
2023-03-07T15:17:43.880Z,21.48
2023-03-07T15:20:19.366Z,22.38
2023-03-07T15:22:47.433Z,20.38
2023-03-07T15:25:25.244Z,21.20
2023-03-07T15:28:02.241Z,20.02
2023-03-07T15:30:36.937Z,24.92
2023-03-07T15:33:35.538Z,26.05
2023-03-07T15:36:12.369Z,22.38
2023-03-07T15:38:45.260Z,22.60
2023-03-07T15:41:33.896Z,20.77
2023-03-07T15:44:21.394Z,19.33
2023-03-07T15:46:56.442Z,22.27
2023-03-07T15:49:47.581Z,22.13
2023-03-07T15:52:31.802Z,23.27
2023-03-07T15:55:02.410Z,23.98
2023-03-07T15:57:47.980Z,25.58
2023-03-07T16:00:30.258Z,24.30
2023-03-07T16:03:25.798Z,25.23
2023-03-07T16:05:55.241Z,23.38
2023-03-07T16:08:23.878Z,29.48
2023-03-07T16:11:05.508Z,21.92
2023-03-07T16:13:40.988Z,24.33
2023-03-07T16:16:23.299Z,25.23
2023-03-07T16:18:52.083Z,25.63
2023-03-07T16:21:20.574Z,24.77
2023-03-07T16:23:48.545Z,23.75
2023-03-07T16:26:23.961Z,23.17
2023-03-07T16:28:53.806Z,29.67
2023-03-07T16:31:22.069Z,27.30
2023-03-07T16:33:49.850Z,29.58
2023-03-07T16:36:18.197Z,25.13
2023-03-07T16:38:47.295Z,29.23
2023-03-07T16:41:21.120Z,26.95
2023-03-07T16:43:57.953Z,30.08
2023-03-07T16:46:26.273Z,28.48
2023-03-07T16:48:53.982Z,31.10
2023-03-07T16:51:25.796Z,30.23
2023-03-07T16:53:53.696Z,31.80
2023-03-07T16:56:30.432Z,27.40
2023-03-07T16:59:00.510Z,28.88
2023-03-07T17:01:28.409Z,34.45
2023-03-07T17:03:56.714Z,30.27
2023-03-07T17:06:37.253Z,31.00
2023-03-07T17:09:09.487Z,32.00
2023-03-07T17:11:40.487Z,32.72
2023-03-07T17:14:09.699Z,35.95
2023-03-07T17:16:45.095Z,34.67
2023-03-07T17:19:31.103Z,37.08
2023-03-07T17:22:01.144Z,34.83
2023-03-07T17:24:29.690Z,37.40
2023-03-07T17:27:07.563Z,39.28
2023-03-07T17:29:45.462Z,34.08
2023-03-07T17:32:13.397Z,32.85
2023-03-07T17:34:41.152Z,36.97
2023-03-07T17:37:10.607Z,36.00
2023-03-07T17:39:39.008Z,34.70
2023-03-07T17:42:06.715Z,35.55
2023-03-07T17:44:34.552Z,34.78
2023-03-07T17:47:01.948Z,34.25
2023-03-07T17:49:38.663Z,33.70
2023-03-07T17:52:08.113Z,35.17
2023-03-07T17:54:36.222Z,37.13
2023-03-07T17:57:03.885Z,36.92
2023-03-07T17:59:34.305Z,37.05
2023-03-07T18:02:02.961Z,37.65
2023-03-07T18:04:31.933Z,38.80
2023-03-07T18:07:02.295Z,38.35
2023-03-07T18:09:31.207Z,37.15
2023-03-07T18:11:58.581Z,36.92
2023-03-07T18:14:27.968Z,43.58
2023-03-07T18:16:56.787Z,37.15
2023-03-07T18:19:27.224Z,42.88
2023-03-07T18:21:56.308Z,42.55
2023-03-07T18:24:31.661Z,41.75
2023-03-07T18:27:00.589Z,41.65
2023-03-07T18:29:29.712Z,41.88
2023-03-07T18:31:57.508Z,42.00
2023-03-07T18:34:25.669Z,36.85
2023-03-07T18:36:54.434Z,38.70
2023-03-07T18:39:24.128Z,35.95
2023-03-07T18:41:53.342Z,41.28
2023-03-07T18:44:21.541Z,37.47
2023-03-07T18:46:49.917Z,36.15
2023-03-07T18:49:17.958Z,39.50
2023-03-07T18:51:46.175Z,37.53
2023-03-07T18:54:14.267Z,39.03
2023-03-07T18:56:44.996Z,37.33
2023-03-07T18:59:13.767Z,40.90
2023-03-07T19:01:42.759Z,40.75
2023-03-07T19:04:11.765Z,39.85
2023-03-07T19:06:42.753Z,42.28
2023-03-07T19:09:19.777Z,41.15
2023-03-07T19:11:48.492Z,43.42
2023-03-07T19:14:16.429Z,43.33
2023-03-07T19:16:44.282Z,41.05
2023-03-07T19:19:12.073Z,39.50
2023-03-07T19:21:39.566Z,37.55
2023-03-07T19:24:11.555Z,37.40
2023-03-07T19:26:40.201Z,35.42
2023-03-07T19:29:09.849Z,38.65
2023-03-07T19:31:37.195Z,39.58
2023-03-07T19:34:06.453Z,38.05
2023-03-07T19:36:37.545Z,37.22
2023-03-07T19:39:06.284Z,37.38
2023-03-07T19:41:33.679Z,38.13
2023-03-07T19:44:01.821Z,39.10
2023-03-07T19:46:29.173Z,38.75
2023-03-07T19:48:56.938Z,40.60
2023-03-07T19:51:27.054Z,41.85
2023-03-07T19:53:57.504Z,36.90
2023-03-07T19:56:31.873Z,37.05
2023-03-07T19:59:02.167Z,39.80
2023-03-07T20:01:30.417Z,41.88
2023-03-07T20:03:58.788Z,39.10
2023-03-07T20:06:32.747Z,37.65
2023-03-07T20:09:01.514Z,40.40
2023-03-07T20:11:34.663Z,38.08
2023-03-07T20:14:05.786Z,41.15
2023-03-07T20:16:34.804Z,39.97
2023-03-07T20:19:09.213Z,41.33
2023-03-07T20:21:38.216Z,40.45
2023-03-07T20:24:08.223Z,38.80
2023-03-07T20:26:38.745Z,38.47
2023-03-07T20:29:08.636Z,44.13
2023-03-07T20:31:39.285Z,37.78
2023-03-07T20:34:08.157Z,42.13
2023-03-07T20:36:38.363Z,45.60
2023-03-07T20:39:14.652Z,41.28
2023-03-07T20:41:44.130Z,41.08
2023-03-07T20:44:14.884Z,40.55
2023-03-07T20:46:42.541Z,38.67
2023-03-07T20:49:14.151Z,40.65
2023-03-07T20:51:43.506Z,41.17
2023-03-07T20:54:14.773Z,38.08
2023-03-07T20:56:43.897Z,39.75
2023-03-07T20:59:16.048Z,39.55
2023-03-07T21:01:50.498Z,38.72
2023-03-07T21:04:20.602Z,38.58
2023-03-07T21:06:49.245Z,36.25
2023-03-07T21:09:18.478Z,37.50
2023-03-07T21:11:49.212Z,34.60
2023-03-07T21:14:19.560Z,38.08
2023-03-07T21:16:46.982Z,34.40
2023-03-07T21:19:14.880Z,35.72
2023-03-07T21:21:42.650Z,39.25
2023-03-07T21:24:15.911Z,34.35
2023-03-07T21:26:43.453Z,41.17
2023-03-07T21:29:11.183Z,33.72
2023-03-07T21:31:38.948Z,39.10
2023-03-07T21:34:11.302Z,38.38
2023-03-07T21:36:38.679Z,35.08
2023-03-07T21:39:09.951Z,32.78
2023-03-07T21:41:38.184Z,35.47
2023-03-07T21:44:06.251Z,32.03
2023-03-07T21:46:33.730Z,35.00
2023-03-07T21:49:01.692Z,31.45
2023-03-07T21:51:29.285Z,35.35
2023-03-07T21:53:56.896Z,35.28
2023-03-07T21:56:24.357Z,32.33
2023-03-07T21:59:01.183Z,31.90
2023-03-07T22:01:29.764Z,33.78
2023-03-07T22:03:59.693Z,33.22
2023-03-07T22:06:28.445Z,33.70
2023-03-07T22:08:56.396Z,35.28
2023-03-07T22:11:23.696Z,37.80
2023-03-07T22:13:51.414Z,33.65
2023-03-07T22:16:21.060Z,35.35
2023-03-07T22:18:53.730Z,34.83
2023-03-07T22:21:21.640Z,32.05
2023-03-07T22:23:49.288Z,37.42
2023-03-07T22:26:16.684Z,34.05
2023-03-07T22:28:44.198Z,37.30
2023-03-07T22:31:13.273Z,38.40
2023-03-07T22:33:41.834Z,32.50
2023-03-07T22:36:13.203Z,34.35
2023-03-07T22:38:42.865Z,38.95
2023-03-07T22:41:17.098Z,37.90
2023-03-07T22:43:45.268Z,34.50
2023-03-07T22:46:13.147Z,34.53
2023-03-07T22:48:41.097Z,39.33
2023-03-07T22:51:20.279Z,32.72
2023-03-07T22:53:48.404Z,34.45
2023-03-07T22:56:27.506Z,35.67
2023-03-07T22:58:55.388Z,34.67
2023-03-07T23:01:27.173Z,34.40
2023-03-07T23:03:57.370Z,32.70
2023-03-07T23:06:30.303Z,37.17
2023-03-07T23:08:59.868Z,31.30
2023-03-07T23:11:31.329Z,34.40
2023-03-07T23:14:00.079Z,33.03
2023-03-07T23:16:30.779Z,33.50
2023-03-07T23:18:59.936Z,35.30
2023-03-07T23:21:30.782Z,34.35
2023-03-07T23:23:59.975Z,32.72
2023-03-07T23:26:36.993Z,32.28
2023-03-07T23:29:09.873Z,35.55
2023-03-07T23:31:40.515Z,33.17
2023-03-07T23:34:19.091Z,29.58
2023-03-07T23:36:46.845Z,32.45
2023-03-07T23:39:16.677Z,33.50
2023-03-07T23:41:44.021Z,37.42
2023-03-07T23:44:12.232Z,38.38
2023-03-07T23:46:39.847Z,35.88
2023-03-07T23:49:07.424Z,36.53
2023-03-07T23:51:34.754Z,33.45
2023-03-07T23:54:02.341Z,32.25
2023-03-07T23:56:29.725Z,30.95
2023-03-07T23:58:57.233Z,33.75
